Time;durP1;ratioP1;P1;durP2;ratioP2;P2;SDS_P1;SDS_P2;PMS_P1;PMS_P2;Temp;Humidity;BMP_temperature;BMP_pressure;BME280_temperature;BME280_humidity;BME280_pressure;Samples;Min_cycle;Max_cycle;Signal;HPM_P1;HPM_P2
2024/02/04 00:01:55;;;;;;;9.13;2.93;;;18.30;62.60;;;;;;4997787;28;20828;-83
2024/02/04 00:04:27;;;;;;;4.40;2.80;;;18.30;62.50;;;;;;4998887;28;20469;-82
2024/02/04 00:06:58;;;;;;;6.43;2.50;;;18.30;62.40;;;;;;4998887;28;20449;-82
2024/02/04 00:09:33;;;;;;;8.40;2.87;;;18.20;62.50;;;;;;4991393;28;20499;-83
2024/02/04 00:12:09;;;;;;;7.10;2.87;;;18.20;62.60;;;;;;4995397;28;20446;-82
2024/02/04 00:14:37;;;;;;;2.33;2.10;;;18.20;62.70;;;;;;4991980;28;20503;-81
2024/02/04 00:17:06;;;;;;;4.83;2.50;;;18.10;62.20;;;;;;4998937;28;20449;-83
2024/02/04 00:19:48;;;;;;;7.27;2.70;;;18.10;62.50;;;;;;4992392;28;20469;-83
2024/02/04 00:22:19;;;;;;;3.80;2.60;;;18.10;62.30;;;;;;4997264;28;20480;-82
2024/02/04 00:25:04;;;;;;;5.30;2.60;;;18.10;62.70;;;;;;5000050;28;20452;-83
2024/02/04 00:27:34;;;;;;;6.93;3.23;;;18.10;62.60;;;;;;4990752;28;20469;-83
2024/02/04 00:30:02;;;;;;;6.73;2.80;;;18.10;62.60;;;;;;4995962;28;20455;-81
2024/02/04 00:32:36;;;;;;;5.13;2.50;;;18.10;62.60;;;;;;4994173;28;20465;-83
2024/02/04 00:35:17;;;;;;;3.83;2.60;;;18.10;62.60;;;;;;4994448;28;20469;-83
2024/02/04 00:37:47;;;;;;;5.10;2.83;;;18.10;62.50;;;;;;4993102;28;20449;-83
2024/02/04 00:40:15;;;;;;;4.13;2.90;;;18.00;62.50;;;;;;4996723;28;20451;-81
2024/02/04 00:42:43;;;;;;;5.93;2.80;;;18.00;62.10;;;;;;4994014;28;20489;-79
2024/02/04 00:45:12;;;;;;;7.70;3.40;;;18.00;62.50;;;;;;4996780;28;20460;-80
2024/02/04 00:47:40;;;;;;;7.13;2.60;;;18.00;62.20;;;;;;4996862;28;20473;-82
2024/02/04 00:50:09;;;;;;;3.03;2.73;;;18.00;62.60;;;;;;4996075;28;20449;-80
2024/02/04 00:52:39;;;;;;;6.47;3.20;;;18.00;62.30;;;;;;4996516;28;20988;-80
2024/02/04 00:55:11;;;;;;;6.13;3.40;;;17.90;62.20;;;;;;4996550;28;20445;-81
2024/02/04 00:57:39;;;;;;;3.23;2.30;;;17.90;62.30;;;;;;4997861;28;20488;-82
2024/02/04 01:00:09;;;;;;;4.07;2.60;;;17.90;62.10;;;;;;4990268;28;20966;-80
2024/02/04 01:02:37;;;;;;;3.90;2.93;;;17.80;62.40;;;;;;4995840;28;20481;-81
2024/02/04 01:05:06;;;;;;;6.17;2.87;;;17.90;62.50;;;;;;4992322;28;20958;-82
2024/02/04 01:07:34;;;;;;;2.97;2.50;;;17.80;62.10;;;;;;4990384;28;20445;-82
2024/02/04 01:10:03;;;;;;;4.40;2.50;;;17.80;62.30;;;;;;4992548;28;20445;-81
2024/02/04 01:12:38;;;;;;;5.03;2.80;;;17.80;62.50;;;;;;4995213;28;20464;-81
2024/02/04 01:15:07;;;;;;;4.90;2.50;;;17.80;62.40;;;;;;4997935;28;20460;-82
2024/02/04 01:17:35;;;;;;;7.73;3.30;;;17.80;62.40;;;;;;4998039;28;20473;-81
2024/02/04 01:20:05;;;;;;;3.27;2.70;;;17.80;62.30;;;;;;4987249;28;20446;-81
2024/02/04 01:22:33;;;;;;;4.60;2.60;;;17.80;62.20;;;;;;4999019;28;20484;-80
2024/02/04 01:25:01;;;;;;;4.20;2.97;;;17.80;62.30;;;;;;4997975;28;20565;-81
2024/02/04 01:27:30;;;;;;;7.07;3.00;;;17.80;61.80;;;;;;4994215;28;20454;-81
2024/02/04 01:29:59;;;;;;;4.37;2.40;;;17.80;62.10;;;;;;4993747;28;20437;-81
2024/02/04 01:32:27;;;;;;;6.87;3.00;;;17.70;61.70;;;;;;4996299;28;20612;-81
2024/02/04 01:34:56;;;;;;;3.80;2.93;;;17.70;63.10;;;;;;4996142;28;20446;-82
2024/02/04 01:37:24;;;;;;;5.27;2.90;;;17.70;62.10;;;;;;4995836;28;20532;-81
2024/02/04 01:39:52;;;;;;;6.40;2.90;;;17.70;62.30;;;;;;4997495;28;20528;-83
2024/02/04 01:42:20;;;;;;;3.47;2.50;;;17.70;61.90;;;;;;4995767;28;20480;-81
2024/02/04 01:44:49;;;;;;;6.70;3.13;;;17.70;62.30;;;;;;4990751;28;20445;-79
2024/02/04 01:47:18;;;;;;;6.00;2.60;;;17.70;62.20;;;;;;4993457;28;20449;-81
2024/02/04 01:49:46;;;;;;;3.70;2.60;;;17.70;62.10;;;;;;4994543;28;20453;-81
2024/02/04 01:52:14;;;;;;;3.50;2.70;;;17.70;61.90;;;;;;4994795;28;20538;-82
2024/02/04 01:54:42;;;;;;;5.30;3.03;;;17.70;62.30;;;;;;4997015;28;20450;-83
2024/02/04 01:57:11;;;;;;;4.70;2.97;;;17.70;62.00;;;;;;4997461;28;20536;-82
2024/02/04 01:59:39;;;;;;;5.00;2.80;;;17.70;62.10;;;;;;4997548;28;20477;-81
2024/02/04 02:02:08;;;;;;;7.20;3.33;;;17.60;62.30;;;;;;4994683;28;20523;-81
2024/02/04 02:04:38;;;;;;;4.87;3.00;;;17.60;62.20;;;;;;4982223;28;20496;-81
2024/02/04 02:07:07;;;;;;;6.50;3.20;;;17.60;62.20;;;;;;4996740;28;20460;-83
2024/02/04 02:09:36;;;;;;;3.73;2.53;;;17.60;62.10;;;;;;4989653;28;20474;-82
2024/02/04 02:12:10;;;;;;;4.97;2.90;;;17.60;61.90;;;;;;4992503;28;20446;-82
2024/02/04 02:14:42;;;;;;;8.43;3.63;;;17.60;61.90;;;;;;4991463;28;20512;-81
2024/02/04 02:17:17;;;;;;;4.93;3.20;;;17.60;62.10;;;;;;4996746;28;20810;-81
2024/02/04 02:19:52;;;;;;;4.53;2.63;;;17.50;61.80;;;;;;4991111;28;20469;-82
2024/02/04 02:22:26;;;;;;;5.63;3.27;;;17.50;62.00;;;;;;4987996;28;20481;-82
2024/02/04 02:24:57;;;;;;;3.57;2.20;;;17.50;61.80;;;;;;4992848;28;20444;-79
2024/02/04 02:27:27;;;;;;;5.10;2.93;;;17.50;62.20;;;;;;4989485;28;20445;-83
2024/02/04 02:29:55;;;;;;;3.73;2.67;;;17.50;62.10;;;;;;4993267;28;20442;-82
2024/02/04 02:32:23;;;;;;;3.73;2.83;;;17.50;61.90;;;;;;4993834;28;20496;-79
2024/02/04 02:34:51;;;;;;;6.43;3.03;;;17.50;61.80;;;;;;4996011;28;20477;-81
2024/02/04 02:37:28;;;;;;;4.93;2.80;;;17.50;62.40;;;;;;4991213;28;20448;-82
2024/02/04 02:40:00;;;;;;;5.17;2.73;;;17.40;61.40;;;;;;4993368;28;20461;-81
2024/02/04 02:42:29;;;;;;;4.07;2.67;;;17.40;62.10;;;;;;4998583;28;20477;-84
2024/02/04 02:44:58;;;;;;;4.53;2.57;;;17.40;61.50;;;;;;4998437;28;20424;-82
2024/02/04 02:47:27;;;;;;;3.17;2.77;;;17.40;61.60;;;;;;4998857;28;20513;-81
2024/02/04 02:49:58;;;;;;;3.10;2.50;;;17.40;61.80;;;;;;4990892;28;20480;-83
2024/02/04 02:52:26;;;;;;;2.50;2.30;;;17.40;61.90;;;;;;4995981;28;20520;-82
2024/02/04 02:54:54;;;;;;;2.90;2.60;;;17.30;61.30;;;;;;4997827;28;20441;-82
2024/02/04 02:57:24;;;;;;;5.77;3.10;;;17.30;61.90;;;;;;4993465;28;20484;-83
2024/02/04 02:59:52;;;;;;;6.07;2.67;;;17.30;61.50;;;;;;4984390;28;20449;-83
2024/02/04 03:02:20;;;;;;;6.70;2.73;;;17.30;61.70;;;;;;4995357;28;20476;-81
2024/02/04 03:04:49;;;;;;;2.90;2.60;;;17.40;61.90;;;;;;5001244;28;20477;-83
2024/02/04 03:07:17;;;;;;;3.60;2.70;;;17.30;61.40;;;;;;5004005;28;20455;-81
2024/02/04 03:09:45;;;;;;;4.73;2.90;;;17.30;61.40;;;;;;4999338;28;20454;-82
2024/02/04 03:12:13;;;;;;;6.43;2.40;;;17.30;61.40;;;;;;4995994;28;20449;-83
2024/02/04 03:14:43;;;;;;;5.73;2.80;;;17.30;61.40;;;;;;4996986;28;20477;-80
2024/02/04 03:17:12;;;;;;;5.47;2.90;;;17.20;61.10;;;;;;4993785;28;20942;-83
2024/02/04 03:19:40;;;;;;;4.03;2.40;;;17.20;61.70;;;;;;4986366;28;20450;-82
2024/02/04 03:22:08;;;;;;;5.20;2.80;;;17.20;61.50;;;;;;4994060;28;20449;-82
2024/02/04 03:24:36;;;;;;;3.40;2.63;;;17.20;61.50;;;;;;4985724;28;20480;-82
2024/02/04 03:27:05;;;;;;;5.67;2.50;;;17.20;61.70;;;;;;4992519;28;20449;-81
2024/02/04 03:29:33;;;;;;;3.73;2.53;;;17.20;61.70;;;;;;5002542;28;20437;-82
2024/02/04 03:32:03;;;;;;;4.00;2.73;;;17.20;61.20;;;;;;5008485;28;20472;-82
2024/02/04 03:34:31;;;;;;;3.00;2.60;;;17.20;61.50;;;;;;5005043;28;20470;-82
2024/02/04 03:36:59;;;;;;;6.13;2.57;;;17.20;61.70;;;;;;4995526;28;20424;-81
2024/02/04 03:39:27;;;;;;;3.97;2.40;;;17.20;61.40;;;;;;5003138;28;20455;-81
2024/02/04 03:41:55;;;;;;;5.90;2.80;;;17.20;61.60;;;;;;5000391;28;20460;-81
2024/02/04 03:44:23;;;;;;;3.70;2.67;;;17.20;61.40;;;;;;5000258;28;20477;-82
2024/02/04 03:46:51;;;;;;;4.90;3.30;;;17.20;61.60;;;;;;5002717;28;20457;-85
2024/02/04 03:49:21;;;;;;;6.17;2.50;;;17.10;60.80;;;;;;4993235;28;20490;-84
2024/02/04 03:51:50;;;;;;;6.07;2.53;;;17.10;61.30;;;;;;4991080;28;20437;-84
2024/02/04 03:54:19;;;;;;;4.60;2.73;;;17.10;61.20;;;;;;5006127;28;20454;-83
2024/02/04 03:56:46;;;;;;;7.33;2.73;;;17.10;61.30;;;;;;4984570;28;20433;-85
2024/02/04 03:59:14;;;;;;;5.13;2.40;;;17.10;61.00;;;;;;5006116;28;20449;-82
2024/02/04 04:01:48;;;;;;;6.07;2.70;;;17.10;61.50;;;;;;4995230;28;20454;-83
2024/02/04 04:04:16;;;;;;;2.80;2.20;;;17.10;61.30;;;;;;5072298;22;20496;-76
2024/02/04 04:06:46;;;;;;;2.70;2.20;;;17.10;61.00;;;;;;5072681;28;20440;-76
2024/02/04 04:09:14;;;;;;;6.80;4.03;;;17.10;61.30;;;;;;5065100;28;20522;-79
2024/02/04 04:11:41;;;;;;;3.47;2.80;;;17.00;61.00;;;;;;5058766;28;20435;-77
2024/02/04 04:14:09;;;;;;;4.00;2.73;;;17.00;61.30;;;;;;5062843;28;20858;-77
2024/02/04 04:16:37;;;;;;;6.03;3.50;;;17.00;61.40;;;;;;5094398;28;20444;-78
2024/02/04 04:19:06;;;;;;;8.93;4.70;;;17.00;60.90;;;;;;5068097;28;20442;-77
2024/02/04 04:21:35;;;;;;;4.87;3.67;;;17.00;61.40;;;;;;5064157;28;20486;-77
2024/02/04 04:24:05;;;;;;;14.43;3.70;;;17.00;61.10;;;;;;5064154;28;20481;-77
2024/02/04 04:26:34;;;;;;;7.20;4.33;;;17.00;61.40;;;;;;5088692;28;20472;-77
2024/02/04 04:29:02;;;;;;;9.47;4.90;;;17.00;61.30;;;;;;5063302;28;20509;-77
2024/02/04 04:31:30;;;;;;;8.70;4.70;;;17.00;61.20;;;;;;5069214;28;20453;-77
2024/02/04 04:33:58;;;;;;;9.93;4.70;;;17.00;61.20;;;;;;5067894;28;20492;-77
2024/02/04 04:36:27;;;;;;;8.50;4.70;;;17.00;61.30;;;;;;5061218;28;20831;-77
2024/02/04 04:38:55;;;;;;;10.20;5.10;;;17.00;61.20;;;;;;5073611;28;20445;-77
2024/02/04 04:41:24;;;;;;;10.10;5.03;;;17.00;61.20;;;;;;5071027;28;20532;-77
2024/02/04 04:43:52;;;;;;;7.57;5.10;;;17.00;61.50;;;;;;5082303;28;20501;-76
2024/02/04 04:46:20;;;;;;;10.40;5.13;;;17.00;61.60;;;;;;5077399;28;20469;-77
2024/02/04 04:48:48;;;;;;;9.27;5.87;;;17.00;61.30;;;;;;5061480;28;20449;-76
2024/02/04 04:51:16;;;;;;;8.23;5.03;;;17.00;61.40;;;;;;5071069;28;20520;-77
2024/02/04 04:53:44;;;;;;;6.80;4.80;;;17.00;61.30;;;;;;5062669;28;20493;-77
2024/02/04 04:56:13;;;;;;;9.40;5.87;;;17.00;61.40;;;;;;5067087;28;20441;-76
2024/02/04 04:58:42;;;;;;;10.00;5.77;;;16.90;62.10;;;;;;5070380;28;20449;-76
2024/02/04 05:01:10;;;;;;;9.50;5.47;;;16.90;61.40;;;;;;5078526;28;20446;-76
2024/02/04 05:03:38;;;;;;;7.10;4.90;;;16.90;61.20;;;;;;5068299;28;20480;-74
2024/02/04 05:06:06;;;;;;;10.10;5.57;;;16.90;61.40;;;;;;5071470;28;20440;-74
2024/02/04 05:08:34;;;;;;;8.60;5.47;;;16.90;61.20;;;;;;5070189;28;20477;-74
2024/02/04 05:11:01;;;;;;;11.20;5.80;;;16.90;61.00;;;;;;5088659;28;20468;-74
2024/02/04 05:13:29;;;;;;;11.73;5.40;;;16.90;61.30;;;;;;5078755;28;20544;-74
2024/02/04 05:15:58;;;;;;;7.90;4.80;;;16.90;61.20;;;;;;5070224;28;20465;-76
2024/02/04 05:18:27;;;;;;;10.07;6.20;;;16.90;61.40;;;;;;5078892;28;20454;-77
2024/02/04 05:20:56;;;;;;;9.60;5.97;;;16.90;61.30;;;;;;5076893;28;20572;-75
2024/02/04 05:23:24;;;;;;;7.50;4.80;;;16.90;61.30;;;;;;5071908;28;20473;-75
2024/02/04 05:25:52;;;;;;;12.53;6.30;;;16.90;61.40;;;;;;5088524;28;20433;-74
2024/02/04 05:28:20;;;;;;;8.87;5.47;;;16.90;61.30;;;;;;5080037;28;20434;-74
2024/02/04 05:30:48;;;;;;;6.23;4.87;;;16.90;61.40;;;;;;5074443;28;20495;-75
2024/02/04 05:33:17;;;;;;;9.87;5.50;;;16.90;61.20;;;;;;5079709;28;20522;-74
2024/02/04 05:35:45;;;;;;;10.20;5.80;;;16.90;61.40;;;;;;5063279;28;20530;-74
2024/02/04 05:38:13;;;;;;;10.80;5.07;;;16.90;61.40;;;;;;5063898;28;20498;-74
2024/02/04 05:40:41;;;;;;;7.00;4.60;;;16.80;61.50;;;;;;5073729;28;20472;-74
2024/02/04 05:43:10;;;;;;;9.97;4.83;;;16.90;61.60;;;;;;5060602;28;20545;-77
2024/02/04 05:45:41;;;;;;;7.53;4.97;;;16.90;61.60;;;;;;5080007;28;20497;-77
2024/02/04 05:48:09;;;;;;;7.17;4.70;;;16.90;61.40;;;;;;5079549;28;20452;-75
2024/02/04 05:50:39;;;;;;;8.77;5.07;;;16.90;61.40;;;;;;5071341;28;20541;-75
2024/02/04 05:53:07;;;;;;;8.77;5.37;;;16.90;61.30;;;;;;5080399;28;20468;-75
2024/02/04 05:55:35;;;;;;;7.83;4.40;;;16.90;61.60;;;;;;5079165;28;20468;-75
2024/02/04 05:58:03;;;;;;;7.13;4.80;;;16.90;61.50;;;;;;5069612;28;20480;-75
2024/02/04 06:00:32;;;;;;;7.23;4.77;;;16.90;61.40;;;;;;5080814;28;20516;-75
2024/02/04 06:03:00;;;;;;;7.43;4.73;;;16.80;61.50;;;;;;5080620;28;20515;-75
2024/02/04 06:05:28;;;;;;;9.40;5.00;;;16.90;61.40;;;;;;5068636;28;20584;-75
2024/02/04 06:07:57;;;;;;;5.00;4.30;;;16.90;61.60;;;;;;5082336;28;20509;-75
2024/02/04 06:10:25;;;;;;;6.33;4.50;;;16.90;61.40;;;;;;5065706;28;20442;-75
2024/02/04 06:12:52;;;;;;;7.90;5.10;;;16.80;61.60;;;;;;5086959;28;20541;-76
2024/02/04 06:15:21;;;;;;;6.70;4.47;;;16.90;61.70;;;;;;5074145;28;20433;-75
2024/02/04 06:17:49;;;;;;;7.63;4.53;;;16.90;61.70;;;;;;5058634;28;21028;-76
2024/02/04 06:20:17;;;;;;;10.33;4.20;;;16.90;61.40;;;;;;5070287;28;20450;-76
2024/02/04 06:22:45;;;;;;;7.20;4.37;;;16.90;61.70;;;;;;5070798;28;20535;-76
2024/02/04 06:25:15;;;;;;;8.53;4.80;;;16.80;61.50;;;;;;5069013;28;20540;-75
2024/02/04 06:27:43;;;;;;;7.80;4.27;;;16.80;61.40;;;;;;5073317;28;20441;-75
2024/02/04 06:30:12;;;;;;;8.50;4.40;;;16.80;61.50;;;;;;5071817;28;20441;-75
2024/02/04 06:32:40;;;;;;;7.23;4.10;;;16.90;61.90;;;;;;5074235;28;20531;-75
2024/02/04 06:35:08;;;;;;;7.47;4.03;;;16.90;61.70;;;;;;5080118;28;20442;-75
2024/02/04 06:37:36;;;;;;;7.10;4.20;;;16.90;61.30;;;;;;5084568;28;20448;-75
2024/02/04 06:40:05;;;;;;;6.07;3.97;;;16.90;61.70;;;;;;5077583;28;20503;-76
2024/02/04 06:42:35;;;;;;;11.80;5.00;;;16.90;61.50;;;;;;5080600;28;20441;-75
2024/02/04 06:45:03;;;;;;;9.00;4.23;;;16.90;61.30;;;;;;5070968;28;20480;-76
2024/02/04 06:47:31;;;;;;;7.07;4.40;;;16.90;61.90;;;;;;5077221;28;20499;-76
2024/02/04 06:49:59;;;;;;;9.67;3.90;;;16.90;61.60;;;;;;5080672;28;20453;-76
2024/02/04 06:52:27;;;;;;;9.60;3.90;;;16.90;61.70;;;;;;5055859;28;20454;-76
2024/02/04 06:54:55;;;;;;;5.50;3.50;;;16.90;61.70;;;;;;5070369;28;20434;-75
2024/02/04 06:57:23;;;;;;;5.33;3.40;;;16.90;61.70;;;;;;5078960;28;20433;-76
2024/02/04 06:59:52;;;;;;;5.73;4.00;;;16.90;61.80;;;;;;5075150;28;20429;-76
2024/02/04 07:02:20;;;;;;;4.40;3.80;;;16.90;61.70;;;;;;5065229;28;20424;-75
2024/02/04 07:04:48;;;;;;;6.43;4.07;;;16.90;61.70;;;;;;5073482;28;20476;-75
2024/02/04 07:07:21;;;;;;;7.27;3.47;;;16.90;61.90;;;;;;5071867;28;20479;-76
2024/02/04 07:09:48;;;;;;;5.90;3.43;;;16.90;61.50;;;;;;5059947;28;20450;-75
2024/02/04 07:12:16;;;;;;;5.83;3.10;;;16.90;61.60;;;;;;5074619;28;20445;-75
2024/02/04 07:14:44;;;;;;;6.60;3.40;;;16.90;62.00;;;;;;5082622;28;20895;-75
2024/02/04 07:17:13;;;;;;;6.83;3.97;;;16.90;61.70;;;;;;5089130;28;20543;-76
2024/02/04 07:19:41;;;;;;;4.47;3.53;;;16.90;61.80;;;;;;5061188;28;20811;-76
2024/02/04 07:22:09;;;;;;;3.93;3.53;;;17.00;61.90;;;;;;5074382;28;20442;-76
2024/02/04 07:24:37;;;;;;;3.30;2.97;;;17.00;61.70;;;;;;5069407;28;20471;-75
2024/02/04 07:27:05;;;;;;;7.17;4.40;;;17.00;61.70;;;;;;5088576;28;20469;-75
2024/02/04 07:29:33;;;;;;;4.47;3.30;;;17.00;61.90;;;;;;5082425;28;20441;-75
2024/02/04 07:32:01;;;;;;;7.00;3.10;;;17.00;61.90;;;;;;5084368;28;20523;-75
2024/02/04 07:34:30;;;;;;;6.77;3.13;;;17.00;61.90;;;;;;5068865;28;20533;-75
2024/02/04 07:36:58;;;;;;;5.53;3.33;;;17.00;61.80;;;;;;5077558;28;20529;-75
2024/02/04 07:39:26;;;;;;;5.47;3.27;;;17.00;61.80;;;;;;5057940;28;20517;-76
2024/02/04 07:41:55;;;;;;;3.93;3.43;;;17.10;61.80;;;;;;5087143;28;20447;-76
2024/02/04 07:44:24;;;;;;;7.57;3.37;;;17.10;61.90;;;;;;5080995;28;20500;-76
2024/02/04 07:46:52;;;;;;;6.17;3.40;;;17.10;61.80;;;;;;5065361;28;20473;-76
2024/02/04 07:49:19;;;;;;;7.00;3.50;;;17.10;61.80;;;;;;5073892;28;20464;-75
2024/02/04 07:51:49;;;;;;;6.13;3.20;;;17.10;61.90;;;;;;5079488;28;20469;-76
2024/02/04 07:54:17;;;;;;;6.97;3.57;;;17.10;61.50;;;;;;5083192;28;20453;-76
2024/02/04 07:56:44;;;;;;;5.77;3.73;;;17.10;61.80;;;;;;5084690;28;20521;-76
2024/02/04 07:59:12;;;;;;;5.67;3.10;;;17.10;61.80;;;;;;5082214;28;20434;-76
2024/02/04 08:01:40;;;;;;;6.00;3.00;;;17.10;61.70;;;;;;5075666;28;20450;-76
2024/02/04 08:04:10;;;;;;;7.80;3.70;;;17.10;61.80;;;;;;5073543;28;20473;-76
2024/02/04 08:06:38;;;;;;;6.83;3.03;;;17.10;61.80;;;;;;5063584;28;20550;-75
2024/02/04 08:09:08;;;;;;;4.57;3.30;;;17.20;61.80;;;;;;5081279;28;20457;-75
2024/02/04 08:11:36;;;;;;;4.30;3.00;;;17.20;61.70;;;;;;5062685;28;20448;-76
2024/02/04 08:14:04;;;;;;;4.73;2.83;;;17.20;61.90;;;;;;5063919;28;20468;-76
2024/02/04 08:16:32;;;;;;;7.87;3.50;;;17.20;61.60;;;;;;5075645;28;20501;-77
2024/02/04 08:19:00;;;;;;;6.30;2.90;;;17.20;61.90;;;;;;5093132;28;20448;-76
2024/02/04 08:21:31;;;;;;;4.97;2.60;;;17.20;61.70;;;;;;5071747;28;20440;-75
2024/02/04 08:23:59;;;;;;;4.10;2.80;;;17.20;61.80;;;;;;5071065;28;20457;-75
2024/02/04 08:26:28;;;;;;;4.73;2.70;;;17.20;61.60;;;;;;5071029;28;20569;-76
2024/02/04 08:28:56;;;;;;;5.00;3.00;;;17.20;61.70;;;;;;5080967;28;20433;-75
2024/02/04 08:31:24;;;;;;;3.93;2.70;;;17.20;61.70;;;;;;5081546;28;20461;-76
2024/02/04 08:33:52;;;;;;;6.67;3.37;;;17.20;61.70;;;;;;5062688;28;20532;-76
2024/02/04 08:36:20;;;;;;;4.80;2.80;;;17.30;61.70;;;;;;5081396;28;20422;-75
2024/02/04 08:38:48;;;;;;;3.13;2.80;;;17.30;61.60;;;;;;5075783;28;20537;-77
2024/02/04 08:41:16;;;;;;;3.43;2.37;;;17.30;61.60;;;;;;5065921;28;20524;-76
2024/02/04 08:43:46;;;;;;;5.97;2.77;;;17.30;61.40;;;;;;5076507;28;20465;-76
2024/02/04 08:46:14;;;;;;;4.47;2.87;;;17.30;61.50;;;;;;5073567;28;20480;-76
2024/02/04 08:48:42;;;;;;;6.13;2.97;;;17.30;61.60;;;;;;5075082;28;20501;-75
2024/02/04 08:51:12;;;;;;;7.50;2.90;;;17.30;61.60;;;;;;5073891;28;20436;-76
2024/02/04 08:53:40;;;;;;;5.67;2.87;;;17.30;61.10;;;;;;5070330;28;20519;-76
2024/02/04 08:56:08;;;;;;;4.20;2.60;;;17.30;61.50;;;;;;5072545;28;20430;-75
2024/02/04 08:58:37;;;;;;;4.50;2.93;;;17.30;61.50;;;;;;5072205;28;20446;-75
2024/02/04 09:01:07;;;;;;;7.20;3.10;;;17.30;61.50;;;;;;5072987;28;20732;-75
2024/02/04 09:03:35;;;;;;;5.23;2.70;;;17.30;61.40;;;;;;5076697;28;20473;-75
2024/02/04 09:06:03;;;;;;;6.50;2.53;;;17.40;61.30;;;;;;5070880;28;20465;-75
2024/02/04 09:08:31;;;;;;;7.53;3.33;;;17.40;61.30;;;;;;5087439;28;20434;-75
2024/02/04 09:10:59;;;;;;;6.43;2.50;;;17.50;61.40;;;;;;5065278;28;20469;-75
2024/02/04 09:13:27;;;;;;;7.63;3.07;;;17.50;61.30;;;;;;5076921;28;20548;-75
2024/02/04 09:15:55;;;;;;;7.53;2.80;;;17.50;61.10;;;;;;5085115;28;20512;-75
2024/02/04 09:18:25;;;;;;;5.00;3.00;;;17.50;61.10;;;;;;5081370;28;20441;-75
2024/02/04 09:20:53;;;;;;;6.43;2.40;;;17.50;61.10;;;;;;5074192;28;20440;-75
2024/02/04 09:23:22;;;;;;;5.40;2.73;;;17.50;61.00;;;;;;5059234;28;20467;-75
2024/02/04 09:25:50;;;;;;;6.20;2.80;;;17.50;61.20;;;;;;5079262;28;20476;-75
2024/02/04 09:28:17;;;;;;;5.23;3.00;;;17.60;61.20;;;;;;5085021;28;20449;-75
2024/02/04 09:30:46;;;;;;;6.10;2.70;;;17.60;61.10;;;;;;5069531;28;20469;-75
2024/02/04 09:33:14;;;;;;;7.70;2.73;;;17.60;60.90;;;;;;5065786;28;20873;-76
2024/02/04 09:35:46;;;;;;;5.37;2.90;;;17.60;60.90;;;;;;5081269;28;20442;-76
2024/02/04 09:38:15;;;;;;;5.70;2.67;;;17.70;61.00;;;;;;5068956;28;20551;-76
2024/02/04 09:40:43;;;;;;;6.50;2.90;;;17.70;60.80;;;;;;5060393;28;20449;-76
2024/02/04 09:43:12;;;;;;;4.37;2.50;;;17.70;60.90;;;;;;5091746;28;20552;-77
2024/02/04 09:45:41;;;;;;;6.27;2.97;;;17.70;60.90;;;;;;5055435;28;20495;-76
2024/02/04 09:48:09;;;;;;;4.40;2.47;;;17.80;60.90;;;;;;5071829;28;20486;-76
2024/02/04 09:50:37;;;;;;;4.80;2.70;;;17.80;60.80;;;;;;5059808;28;20466;-75
2024/02/04 09:53:08;;;;;;;6.20;2.90;;;17.80;60.70;;;;;;5065920;28;20540;-76
2024/02/04 09:55:36;;;;;;;6.83;2.20;;;17.90;60.80;;;;;;5065740;28;20528;-76
2024/02/04 09:58:04;;;;;;;6.27;2.70;;;17.90;60.50;;;;;;5067252;28;20430;-76
2024/02/04 10:00:32;;;;;;;6.23;2.47;;;17.90;60.70;;;;;;5067238;28;20434;-76
2024/02/04 10:03:00;;;;;;;6.67;2.80;;;17.90;60.50;;;;;;5070431;28;20471;-78
2024/02/04 10:05:28;;;;;;;6.50;2.83;;;18.00;60.50;;;;;;5073382;28;20441;-78
2024/02/04 10:07:56;;;;;;;6.03;2.93;;;18.10;60.40;;;;;;5071923;28;20469;-77
2024/02/04 10:10:26;;;;;;;4.50;2.10;;;18.10;60.20;;;;;;5064511;28;20469;-77
2024/02/04 10:12:55;;;;;;;6.70;2.77;;;18.00;60.00;;;;;;5058874;28;20467;-77
2024/02/04 10:15:23;;;;;;;5.70;2.80;;;18.10;60.00;;;;;;5062155;28;20458;-78
2024/02/04 10:17:53;;;;;;;3.47;2.10;;;18.10;60.10;;;;;;5064161;28;20426;-78
2024/02/04 10:20:21;;;;;;;5.63;2.47;;;18.10;60.10;;;;;;5072031;28;20825;-78
2024/02/04 10:22:49;;;;;;;5.27;2.70;;;18.20;60.20;;;;;;5072944;28;20485;-78
2024/02/04 10:25:20;;;;;;;4.67;2.60;;;18.20;59.80;;;;;;5070749;28;20442;-78
2024/02/04 10:27:50;;;;;;;6.33;2.93;;;18.20;59.80;;;;;;5075188;28;20484;-77
2024/02/04 10:30:20;;;;;;;4.20;2.20;;;18.20;59.90;;;;;;5078007;28;20451;-79
2024/02/04 10:32:48;;;;;;;5.03;3.03;;;18.20;59.90;;;;;;5083990;28;20469;-78
2024/02/04 10:35:18;;;;;;;4.33;2.50;;;18.20;59.80;;;;;;5066922;28;20462;-79
2024/02/04 10:37:46;;;;;;;3.13;2.53;;;18.20;59.80;;;;;;5076175;28;20446;-79
2024/02/04 10:40:14;;;;;;;5.17;2.47;;;18.20;59.80;;;;;;5079659;28;20474;-78
2024/02/04 10:42:43;;;;;;;3.93;2.37;;;18.30;60.10;;;;;;5076970;28;20441;-78
2024/02/04 10:45:14;;;;;;;11.97;3.10;;;18.40;60.10;;;;;;5077487;28;20514;-77
2024/02/04 10:47:42;;;;;;;8.20;2.97;;;18.50;59.80;;;;;;5073961;28;20476;-78
2024/02/04 10:50:11;;;;;;;4.80;2.60;;;18.60;59.80;;;;;;5082607;28;20451;-78
2024/02/04 10:52:40;;;;;;;4.13;2.30;;;18.60;59.60;;;;;;5072605;28;20445;-78
2024/02/04 10:55:09;;;;;;;4.37;2.90;;;18.60;59.50;;;;;;5087110;28;20441;-78
2024/02/04 10:57:38;;;;;;;3.83;2.40;;;18.70;59.40;;;;;;5084917;28;20963;-77
2024/02/04 11:00:08;;;;;;;4.30;2.20;;;18.70;59.40;;;;;;5077716;28;20470;-79
2024/02/04 11:02:38;;;;;;;3.43;2.03;;;18.70;59.40;;;;;;5077521;28;20449;-77
2024/02/04 11:05:08;;;;;;;5.07;2.20;;;18.80;59.40;;;;;;5077082;28;20453;-78
2024/02/04 11:07:36;;;;;;;5.43;2.67;;;18.80;59.30;;;;;;5076469;28;20475;-77
2024/02/04 11:10:05;;;;;;;5.80;2.53;;;18.80;59.20;;;;;;5060085;28;20464;-78
2024/02/04 11:12:34;;;;;;;11.53;2.77;;;18.80;59.30;;;;;;5085524;28;20527;-78
2024/02/04 11:15:04;;;;;;;4.50;2.27;;;18.80;59.20;;;;;;5072970;28;20499;-78
2024/02/04 11:18:08;;;;;;;4.70;2.40;;;18.90;59.30;;;;;;5072224;28;20434;-78
2024/02/04 11:20:47;;;;;;;4.10;2.67;;;19.00;59.50;;;;;;5054596;28;20437;-77
2024/02/04 11:23:34;;;;;;;3.90;2.40;;;19.00;59.10;;;;;;5069507;28;20465;-78
2024/02/04 11:26:04;;;;;;;8.03;2.73;;;19.00;59.00;;;;;;5074192;28;20521;-78
2024/02/04 11:28:32;;;;;;;3.97;2.27;;;19.00;59.00;;;;;;5074640;28;20470;-78
2024/02/04 11:31:00;;;;;;;3.07;2.30;;;19.00;59.00;;;;;;5076795;28;20453;-77
2024/02/04 11:33:30;;;;;;;5.37;2.97;;;19.00;59.00;;;;;;5069817;28;20460;-78
2024/02/04 11:36:04;;;;;;;5.20;2.57;;;19.00;59.10;;;;;;5075635;28;20443;-77
2024/02/04 11:38:33;;;;;;;4.23;2.23;;;19.00;59.00;;;;;;5079185;28;20495;-78
2024/02/04 11:41:01;;;;;;;8.97;2.60;;;18.90;59.10;;;;;;5086136;28;20463;-77
2024/02/04 11:43:29;;;;;;;5.83;2.60;;;18.90;59.00;;;;;;5066292;28;20473;-77
2024/02/04 11:45:57;;;;;;;7.10;2.50;;;18.90;59.20;;;;;;5076902;28;20449;-77
2024/02/04 11:48:31;;;;;;;6.33;2.40;;;19.00;59.10;;;;;;5069385;28;20516;-77
2024/02/04 11:51:00;;;;;;;4.30;2.50;;;19.00;59.60;;;;;;5078377;28;20506;-74
2024/02/04 11:53:32;;;;;;;5.50;2.50;;;18.90;59.10;;;;;;5062448;28;20467;-76
2024/02/04 11:56:02;;;;;;;5.13;2.50;;;18.90;59.10;;;;;;5055539;28;20457;-77
2024/02/04 11:58:31;;;;;;;6.93;2.60;;;18.90;59.10;;;;;;5079679;28;20446;-76
2024/02/04 12:01:00;;;;;;;7.80;2.40;;;18.90;59.80;;;;;;5075078;28;20453;-75
2024/02/04 12:03:33;;;;;;;5.87;2.60;;;18.90;59.20;;;;;;5062017;28;20473;-75
2024/02/04 12:06:01;;;;;;;9.77;2.63;;;18.90;59.20;;;;;;5071156;28;20434;-77
2024/02/04 12:08:30;;;;;;;4.07;2.70;;;18.80;59.90;;;;;;5068188;28;20505;-77
2024/02/04 12:10:58;;;;;;;5.93;2.67;;;18.80;60.60;;;;;;5076373;28;20437;-76
2024/02/04 12:13:27;;;;;;;3.60;2.37;;;18.90;61.10;;;;;;5055744;28;20454;-77
2024/02/04 12:15:55;;;;;;;3.90;2.10;;;18.90;60.80;;;;;;5070964;28;20448;-77
2024/02/04 12:18:23;;;;;;;8.53;2.47;;;18.90;60.80;;;;;;5074385;28;20430;-75
2024/02/04 12:20:55;;;;;;;12.50;2.37;;;19.10;66.20;;;;;;5068272;28;20802;-77
2024/02/04 12:23:25;;;;;;;15.80;3.20;;;19.60;67.60;;;;;;5074932;28;20462;-78
2024/02/04 12:25:53;;;;;;;6.20;2.50;;;19.90;67.50;;;;;;5073732;28;20535;-82
2024/02/04 12:28:21;;;;;;;17.43;2.70;;;20.20;67.00;;;;;;5073436;28;20473;-81
2024/02/04 12:30:54;;;;;;;20.63;3.20;;;20.40;66.70;;;;;;5077540;28;20469;-78
2024/02/04 12:33:23;;;;;;;20.57;5.00;;;20.40;66.80;;;;;;5096670;28;20464;-79
2024/02/04 12:35:55;;;;;;;19.13;4.70;;;20.50;68.00;;;;;;5092779;28;20416;-79
2024/02/04 12:38:24;;;;;;;15.63;4.60;;;20.60;69.10;;;;;;5073636;28;20438;-79
2024/02/04 12:40:52;;;;;;;13.93;4.60;;;20.60;70.00;;;;;;5087294;28;20438;-81
2024/02/04 12:43:20;;;;;;;11.80;3.93;;;20.60;71.20;;;;;;5081838;28;20461;-81
2024/02/04 12:45:48;;;;;;;11.60;3.97;;;20.60;71.60;;;;;;5081796;28;20446;-78
2024/02/04 12:48:18;;;;;;;10.77;4.30;;;20.50;72.30;;;;;;5084992;28;20477;-78
2024/02/04 12:50:46;;;;;;;18.30;3.50;;;20.50;72.70;;;;;;5072016;28;20429;-78
2024/02/04 12:53:17;;;;;;;9.57;3.20;;;20.40;73.10;;;;;;5070446;28;20470;-79
2024/02/04 12:55:45;;;;;;;17.80;4.30;;;20.30;72.80;;;;;;5065497;28;20447;-80